Time;durP1;ratioP1;P1;durP2;ratioP2;P2;SDS_P1;SDS_P2;PMS_P1;PMS_P2;Temp;Humidity;BMP_temperature;BMP_pressure;BME280_temperature;BME280_humidity;BME280_pressure;Samples;Min_cycle;Max_cycle;Signal;HPM_P1;HPM_P2
2021/07/13 00:00:16;;;;;;;16.33;14.73;;;20.90;94.20;;;;;;5039566;28;20195;-79
2021/07/13 00:02:41;;;;;;;16.53;14.83;;;20.80;94.50;;;;;;5043682;28;20169;-79
2021/07/13 00:05:12;;;;;;;17.87;16.10;;;20.70;95.30;;;;;;5043509;28;20197;-77
2021/07/13 00:07:39;;;;;;;17.67;15.97;;;20.60;95.70;;;;;;5037774;28;20194;-77
2021/07/13 00:10:07;;;;;;;17.50;15.93;;;20.80;95.80;;;;;;5036937;28;20617;-80
2021/07/13 00:12:33;;;;;;;18.57;16.77;;;20.60;96.30;;;;;;5035813;28;20180;-76
2021/07/13 00:14:59;;;;;;;17.50;15.73;;;20.70;96.30;;;;;;5037013;28;20182;-77
2021/07/13 00:17:25;;;;;;;17.50;15.70;;;20.60;96.40;;;;;;5037153;28;20179;-80
2021/07/13 00:19:50;;;;;;;19.67;17.73;;;20.70;96.30;;;;;;5036978;28;20195;-79
2021/07/13 00:22:16;;;;;;;19.10;17.10;;;20.80;96.10;;;;;;5036623;28;20193;-80
2021/07/13 00:24:42;;;;;;;19.90;18.00;;;20.80;96.20;;;;;;5036377;28;20572;-78
2021/07/13 00:27:08;;;;;;;20.43;18.43;;;20.90;95.80;;;;;;5036622;28;20176;-76
2021/07/13 00:29:33;;;;;;;20.87;18.70;;;20.90;95.50;;;;;;5037176;28;20547;-78
2021/07/13 00:31:59;;;;;;;19.80;17.90;;;20.90;95.50;;;;;;5049642;28;20163;-75
2021/07/13 00:34:25;;;;;;;21.53;19.33;;;20.90;95.50;;;;;;5051946;28;20214;-74
2021/07/13 00:36:50;;;;;;;21.00;19.10;;;21.00;95.00;;;;;;5053004;28;20158;-78
2021/07/13 00:39:16;;;;;;;20.60;18.80;;;21.00;94.60;;;;;;5056382;28;20155;-77
2021/07/13 00:41:42;;;;;;;21.83;19.73;;;21.00;94.50;;;;;;5056335;28;20188;-75
2021/07/13 00:44:07;;;;;;;23.40;20.97;;;20.80;95.10;;;;;;5040487;28;20219;-76
2021/07/13 00:46:46;;;;;;;21.57;19.43;;;20.90;95.70;;;;;;5037743;28;20252;-76
2021/07/13 00:49:14;;;;;;;21.60;19.47;;;21.00;95.30;;;;;;5037016;28;20220;-78
2021/07/13 00:51:42;;;;;;;20.03;18.17;;;21.00;94.90;;;;;;5036745;28;20180;-76
2021/07/13 00:54:09;;;;;;;20.80;18.77;;;21.00;94.60;;;;;;5036097;28;20167;-79
2021/07/13 00:56:41;;;;;;;21.43;19.17;;;21.00;94.20;;;;;;5036267;28;20165;-77
2021/07/13 00:59:07;;;;;;;21.83;19.60;;;21.10;93.30;;;;;;5036085;28;20177;-76
2021/07/13 01:01:33;;;;;;;22.33;20.13;;;21.00;93.60;;;;;;5043621;28;20199;-77
2021/07/13 01:04:01;;;;;;;22.60;20.43;;;21.00;94.00;;;;;;5040002;28;20182;-80
2021/07/13 01:06:43;;;;;;;22.13;19.87;;;20.90;93.90;;;;;;5035865;28;20203;-78
2021/07/13 01:09:15;;;;;;;21.50;19.43;;;20.80;94.10;;;;;;5034098;28;20178;-79
2021/07/13 01:11:50;;;;;;;23.13;20.10;;;20.70;95.10;;;;;;5035340;28;20175;-80
2021/07/13 01:14:30;;;;;;;20.53;18.43;;;20.60;95.80;;;;;;5035447;28;20174;-78
2021/07/13 01:17:02;;;;;;;20.03;17.93;;;20.50;95.90;;;;;;5034952;28;20242;-77
2021/07/13 01:19:55;;;;;;;20.53;18.53;;;20.30;97.20;;;;;;5035216;28;20179;-80
2021/07/13 01:22:28;;;;;;;20.63;18.57;;;20.40;97.00;;;;;;5035428;28;20191;-78
2021/07/13 01:25:12;;;;;;;20.50;18.40;;;20.40;97.00;;;;;;5033904;28;20161;-77
2021/07/13 01:27:47;;;;;;;21.67;19.67;;;20.30;96.90;;;;;;5033418;28;20676;-76
2021/07/13 01:30:20;;;;;;;20.13;18.23;;;20.40;96.90;;;;;;5034856;28;20304;-76
2021/07/13 01:32:50;;;;;;;20.60;18.60;;;20.40;97.00;;;;;;5034692;28;20249;-79
2021/07/13 01:35:31;;;;;;;20.77;18.77;;;20.40;96.60;;;;;;5034937;28;20182;-77
2021/07/13 01:37:59;;;;;;;19.50;17.63;;;20.50;96.90;;;;;;5035332;28;20191;-79
2021/07/13 01:40:26;;;;;;;20.27;18.23;;;20.40;96.40;;;;;;5035140;28;20202;-79
2021/07/13 01:42:53;;;;;;;19.27;17.57;;;20.30;96.90;;;;;;5035297;28;20241;-77
2021/07/13 01:45:19;;;;;;;19.73;17.83;;;20.40;96.90;;;;;;5035379;28;20167;-77
2021/07/13 01:47:46;;;;;;;19.60;17.60;;;20.40;96.40;;;;;;5033667;28;20175;-76
2021/07/13 01:50:13;;;;;;;20.17;18.27;;;20.40;96.40;;;;;;5034730;28;20171;-79
2021/07/13 01:52:41;;;;;;;20.37;18.47;;;20.30;96.90;;;;;;5035178;28;20259;-77
2021/07/13 01:55:08;;;;;;;20.87;18.77;;;20.40;96.90;;;;;;5036710;28;20167;-76
2021/07/13 01:57:34;;;;;;;20.80;18.80;;;20.30;96.60;;;;;;5047049;28;20191;-75
2021/07/13 02:00:04;;;;;;;20.67;18.60;;;20.20;96.40;;;;;;5046112;28;20218;-78
2021/07/13 02:02:31;;;;;;;20.37;18.33;;;20.10;97.50;;;;;;5035059;28;20170;-79
2021/07/13 02:05:00;;;;;;;20.40;18.20;;;20.00;97.70;;;;;;5034950;28;20256;-79
2021/07/13 02:07:26;;;;;;;21.07;18.87;;;20.10;97.60;;;;;;5034525;28;20179;-75
2021/07/13 02:09:55;;;;;;;19.50;17.57;;;20.20;97.30;;;;;;5034451;28;20551;-78
2021/07/13 02:12:20;;;;;;;19.93;18.03;;;20.20;96.50;;;;;;5034911;28;20166;-76
2021/07/13 02:14:46;;;;;;;20.13;18.23;;;20.30;96.50;;;;;;5036827;28;20302;-78
2021/07/13 02:17:12;;;;;;;20.43;18.30;;;20.20;96.70;;;;;;5047672;28;20198;-76
2021/07/13 02:19:37;;;;;;;20.43;18.33;;;20.30;96.90;;;;;;5058880;28;20155;-75
2021/07/13 02:22:04;;;;;;;19.83;17.73;;;20.40;96.50;;;;;;5052122;28;20301;-76
2021/07/13 02:24:29;;;;;;;19.97;17.97;;;20.40;95.80;;;;;;5036919;28;20670;-76
2021/07/13 02:27:04;;;;;;;21.90;19.67;;;20.50;95.40;;;;;;5036398;28;20177;-76
2021/07/13 02:33:00;;;;;;;21.90;19.57;;;20.60;93.10;;;;;;5051045;28;20243;-76
2021/07/13 02:35:39;;;;;;;19.93;17.83;;;20.50;93.20;;;;;;5048297;28;20201;-76
2021/07/13 02:38:07;;;;;;;18.43;16.63;;;20.30;93.00;;;;;;5034038;28;20495;-77
2021/07/13 02:40:34;;;;;;;20.40;18.40;;;20.10;93.00;;;;;;5033820;28;20678;-78
2021/07/13 02:43:00;;;;;;;18.50;16.60;;;20.00;93.70;;;;;;5033731;28;20316;-79
2021/07/13 02:45:27;;;;;;;19.43;17.43;;;19.80;95.10;;;;;;5036101;28;20166;-74
2021/07/13 02:47:55;;;;;;;18.63;16.73;;;19.50;97.10;;;;;;5047881;28;20226;-79
2021/07/13 02:50:28;;;;;;;19.50;17.63;;;19.50;98.20;;;;;;5033709;28;20638;-79
2021/07/13 02:52:55;;;;;;;20.30;18.33;;;19.40;98.90;;;;;;5033785;28;20161;-79
2021/07/13 02:55:22;;;;;;;20.63;18.63;;;19.40;99.50;;;;;;5033776;28;20159;-78
2021/07/13 02:57:50;;;;;;;22.20;20.10;;;19.50;99.60;;;;;;5033977;28;20649;-79
2021/07/13 03:00:17;;;;;;;24.17;21.77;;;19.30;99.90;;;;;;5031407;28;20260;-78
2021/07/13 03:02:46;;;;;;;22.07;19.97;;;19.40;99.90;;;;;;5033619;28;20189;-78
2021/07/13 03:05:19;;;;;;;23.30;21.07;;;19.60;99.90;;;;;;5034376;28;20290;-78
2021/07/13 03:07:47;;;;;;;22.80;20.63;;;19.50;99.90;;;;;;5033693;28;20166;-75
2021/07/13 03:10:13;;;;;;;24.80;22.30;;;19.50;99.90;;;;;;5032875;28;20262;-76
2021/07/13 03:12:39;;;;;;;23.87;21.50;;;19.60;99.90;;;;;;5032360;28;20194;-78
2021/07/13 03:15:07;;;;;;;24.27;21.87;;;19.60;99.90;;;;;;5033877;28;20166;-79
2021/07/13 03:17:33;;;;;;;27.43;23.83;;;19.60;99.90;;;;;;5034210;28;20174;-78
2021/07/13 03:19:59;;;;;;;26.80;23.93;;;19.80;99.90;;;;;;5033687;28;20747;-76
2021/07/13 03:22:32;;;;;;;25.13;22.60;;;19.80;99.60;;;;;;5032131;28;20197;-79
2021/07/13 03:25:02;;;;;;;23.70;21.20;;;19.80;99.20;;;;;;5033118;28;20166;-80
2021/07/13 03:27:31;;;;;;;25.50;23.03;;;19.70;99.80;;;;;;5032746;28;20705;-79
2021/07/13 03:29:58;;;;;;;24.63;22.07;;;19.70;99.90;;;;;;5033106;28;20216;-77
2021/07/13 03:32:24;;;;;;;26.00;23.30;;;19.70;99.90;;;;;;5032733;28;20175;-80
2021/07/13 03:34:51;;;;;;;25.37;22.67;;;19.80;99.90;;;;;;5033192;28;20208;-78
2021/07/13 03:37:18;;;;;;;28.20;25.27;;;19.90;99.40;;;;;;5032975;28;20261;-78
2021/07/13 03:39:45;;;;;;;29.53;26.47;;;19.90;98.70;;;;;;5031657;28;20235;-79
2021/07/13 03:42:11;;;;;;;33.83;30.33;;;19.90;98.20;;;;;;5032623;28;20174;-77
2021/07/13 03:44:37;;;;;;;32.27;29.07;;;19.90;98.40;;;;;;5032628;28;20176;-76
2021/07/13 03:47:03;;;;;;;36.87;31.43;;;20.00;97.80;;;;;;5032863;28;20260;-77
2021/07/13 03:49:29;;;;;;;33.60;30.23;;;19.80;98.30;;;;;;5032774;28;20190;-76
2021/07/13 03:51:55;;;;;;;34.60;31.13;;;19.70;99.20;;;;;;5031733;28;20186;-79
2021/07/13 03:54:21;;;;;;;33.23;29.90;;;19.70;99.90;;;;;;5033031;28;20245;-79
2021/07/13 03:56:49;;;;;;;30.20;27.10;;;19.70;99.90;;;;;;5033083;28;20169;-80
2021/07/13 03:59:16;;;;;;;33.63;30.20;;;19.70;99.90;;;;;;5033056;28;20189;-77
2021/07/13 04:01:42;;;;;;;38.77;34.70;;;19.70;99.90;;;;;;5033362;28;20243;-77
2021/07/13 04:04:08;;;;;;;37.47;33.67;;;19.60;99.90;;;;;;5033279;28;20253;-75
2021/07/13 04:06:34;;;;;;;40.80;36.53;;;19.60;99.90;;;;;;5033278;28;20251;-79
2021/07/13 04:09:01;;;;;;;41.30;37.10;;;19.60;99.90;;;;;;5032858;28;20169;-78
2021/07/13 04:11:26;;;;;;;44.63;39.83;;;19.50;99.90;;;;;;5032824;28;20172;-78
2021/07/13 04:13:52;;;;;;;43.60;38.97;;;19.50;99.90;;;;;;5037361;28;20166;-77
2021/07/13 04:16:18;;;;;;;42.80;38.40;;;19.50;99.90;;;;;;5039016;28;20174;-80
2021/07/13 04:18:44;;;;;;;45.27;40.50;;;19.50;99.90;;;;;;5039356;28;20176;-78
2021/07/13 04:21:10;;;;;;;46.77;40.87;;;19.40;99.90;;;;;;5040859;28;20201;-78
2021/07/13 04:23:35;;;;;;;53.23;43.63;;;19.10;99.90;;;;;;5039957;28;20586;-78
2021/07/13 04:26:03;;;;;;;49.77;42.83;;;19.10;99.90;;;;;;5037180;28;20642;-75
2021/07/13 04:28:31;;;;;;;50.00;40.73;;;19.20;99.90;;;;;;5036897;28;20170;-78
2021/07/13 04:31:00;;;;;;;52.83;40.70;;;18.80;99.90;;;;;;5039734;28;20235;-74
2021/07/13 04:33:26;;;;;;;51.33;40.87;;;18.60;99.90;;;;;;5051840;28;20173;-79
2021/07/13 04:35:53;;;;;;;58.30;46.87;;;18.60;99.90;;;;;;5035744;28;20648;-77
2021/07/13 04:38:19;;;;;;;56.13;44.47;;;18.80;99.90;;;;;;5036529;28;20177;-77
2021/07/13 04:40:45;;;;;;;56.17;44.77;;;18.90;99.90;;;;;;5035990;28;20225;-75
2021/07/13 04:43:11;;;;;;;57.93;45.43;;;18.90;99.90;;;;;;5036948;28;20177;-78
2021/07/13 04:45:37;;;;;;;56.13;45.33;;;19.00;99.90;;;;;;5036609;28;20177;-80
2021/07/13 04:48:03;;;;;;;59.33;47.10;;;19.10;99.90;;;;;;5036581;28;20170;-80
2021/07/13 04:50:29;;;;;;;71.10;50.67;;;19.20;99.90;;;;;;5036521;28;20202;-77
2021/07/13 04:52:55;;;;;;;73.30;52.80;;;19.30;99.90;;;;;;5036270;28;20178;-79
2021/07/13 04:55:20;;;;;;;75.60;54.73;;;19.20;99.90;;;;;;5035504;28;20180;-79
2021/07/13 04:57:46;;;;;;;76.00;54.70;;;19.00;99.90;;;;;;5035732;28;20533;-76
2021/07/13 05:00:13;;;;;;;78.53;56.13;;;19.10;99.90;;;;;;5035445;28;20210;-75
2021/07/13 05:02:39;;;;;;;80.17;57.53;;;19.10;99.90;;;;;;5035143;28;20189;-77
2021/07/13 05:05:08;;;;;;;83.43;60.87;;;19.00;99.90;;;;;;5035549;28;20181;-79
2021/07/13 05:07:39;;;;;;;84.90;61.40;;;18.90;99.90;;;;;;5033991;28;20176;-77
2021/07/13 05:10:07;;;;;;;93.13;62.73;;;18.80;99.90;;;;;;5036484;28;20239;-75
2021/07/13 05:12:32;;;;;;;90.90;63.43;;;18.70;99.90;;;;;;5037612;28;20256;-77
2021/07/13 05:14:58;;;;;;;88.77;62.17;;;18.80;99.90;;;;;;5042690;28;20197;-74
2021/07/13 05:17:24;;;;;;;95.70;64.83;;;18.90;99.90;;;;;;5043681;28;20177;-78
2021/07/13 05:19:50;;;;;;;87.97;63.40;;;18.90;99.90;;;;;;5041219;28;20277;-75
2021/07/13 05:22:16;;;;;;;94.40;64.97;;;18.90;99.90;;;;;;5042538;28;20197;-76
2021/07/13 05:24:41;;;;;;;84.63;62.13;;;18.90;99.90;;;;;;5048793;28;20198;-76
2021/07/13 05:27:11;;;;;;;85.80;60.37;;;18.70;99.90;;;;;;5056377;28;20178;-76
2021/07/13 05:29:38;;;;;;;87.50;62.20;;;18.60;99.90;;;;;;5055446;28;20166;-79
2021/07/13 05:32:05;;;;;;;85.57;61.73;;;18.60;99.90;;;;;;5038298;28;20169;-80
2021/07/13 05:34:31;;;;;;;88.53;62.57;;;18.60;99.90;;;;;;5036265;28;20185;-77
2021/07/13 05:37:00;;;;;;;92.40;64.67;;;18.60;99.90;;;;;;5036036;28;20497;-79
2021/07/13 05:39:25;;;;;;;98.33;65.60;;;18.60;99.90;;;;;;5034891;28;20257;-76
2021/07/13 05:41:51;;;;;;;101.93;67.67;;;18.60;99.90;;;;;;5034774;28;20646;-78
2021/07/13 05:44:17;;;;;;;106.83;69.90;;;18.70;99.90;;;;;;5034728;28;20209;-79
2021/07/13 05:46:43;;;;;;;106.43;68.77;;;18.50;99.90;;;;;;5034173;28;20205;-80
2021/07/13 05:49:08;;;;;;;106.93;67.67;;;18.50;99.90;;;;;;5034293;28;20193;-79
2021/07/13 05:51:34;;;;;;;113.33;68.43;;;18.40;99.90;;;;;;5034090;28;20173;-77
2021/07/13 05:54:00;;;;;;;102.93;65.33;;;18.60;99.90;;;;;;5034197;28;20176;-79
2021/07/13 05:56:26;;;;;;;111.27;69.53;;;18.50;99.90;;;;;;5034570;28;20171;-77
2021/07/13 05:58:52;;;;;;;115.23;68.83;;;18.40;99.90;;;;;;5034321;28;20166;-79
2021/07/13 06:01:17;;;;;;;103.20;63.90;;;18.50;99.90;;;;;;5034561;28;20548;-80
2021/07/13 06:03:43;;;;;;;102.60;62.03;;;18.50;99.90;;;;;;5034394;28;20177;-80
2021/07/13 06:06:09;;;;;;;105.13;66.77;;;18.50;99.90;;;;;;5034369;28;20652;-81
2021/07/13 06:08:34;;;;;;;110.23;65.70;;;18.50;99.90;;;;;;5034055;28;20201;-78
2021/07/13 06:11:00;;;;;;;103.57;66.97;;;18.40;99.90;;;;;;5035030;28;20200;-77
2021/07/13 06:13:26;;;;;;;111.80;68.63;;;18.30;99.90;;;;;;5034566;28;20173;-80
2021/07/13 06:15:52;;;;;;;103.50;66.97;;;18.50;99.90;;;;;;5034081;28;20594;-79
2021/07/13 06:18:21;;;;;;;118.17;69.77;;;18.50;99.90;;;;;;5047924;28;20166;-77
2021/07/13 06:20:48;;;;;;;122.80;69.20;;;18.70;99.90;;;;;;5038094;28;20197;-76
2021/07/13 06:23:14;;;;;;;135.03;71.37;;;18.80;99.90;;;;;;5034166;28;20194;-78
2021/07/13 06:25:40;;;;;;;133.00;69.87;;;18.80;99.90;;;;;;5054886;28;20246;-75
2021/07/13 06:28:06;;;;;;;126.60;70.60;;;18.90;99.90;;;;;;5055136;28;20177;-77
2021/07/13 06:30:32;;;;;;;131.33;68.80;;;18.60;99.90;;;;;;5043319;28;20169;-80
2021/07/13 06:32:57;;;;;;;129.53;69.63;;;18.70;99.90;;;;;;5037336;28;20653;-75
2021/07/13 06:35:23;;;;;;;120.37;69.30;;;18.50;99.90;;;;;;5036297;28;20164;-76
2021/07/13 06:37:50;;;;;;;127.57;69.67;;;18.70;99.90;;;;;;5034506;28;20177;-76
2021/07/13 06:40:16;;;;;;;120.40;67.13;;;18.90;99.90;;;;;;5036062;28;20197;-80
2021/07/13 06:42:43;;;;;;;121.07;66.50;;;18.80;99.90;;;;;;5034630;28;20193;-79
2021/07/13 06:45:09;;;;;;;119.13;65.10;;;18.70;99.90;;;;;;5036279;28;20184;-76
2021/07/13 06:47:35;;;;;;;124.33;64.87;;;18.90;99.90;;;;;;5046301;28;20192;-75
2021/07/13 06:50:01;;;;;;;116.67;63.77;;;18.90;99.90;;;;;;5045589;28;20193;-80
2021/07/13 06:52:26;;;;;;;121.10;64.40;;;18.80;99.90;;;;;;5033264;28;20224;-79
2021/07/13 06:54:52;;;;;;;121.87;64.60;;;18.70;99.90;;;;;;5033585;28;20173;-81
2021/07/13 06:57:18;;;;;;;116.47;63.47;;;18.70;99.90;;;;;;5033589;28;20170;-75
2021/07/13 06:59:45;;;;;;;114.10;64.70;;;18.70;99.90;;;;;;5033924;28;20173;-81
2021/07/13 07:02:10;;;;;;;104.87;58.77;;;18.60;99.90;;;;;;5032676;28;20174;-76
2021/07/13 07:04:36;;;;;;;115.73;59.93;;;18.70;99.90;;;;;;5033756;28;20495;-79
2021/07/13 07:07:02;;;;;;;113.07;61.30;;;18.70;99.90;;;;;;5033020;28;20652;-77
2021/07/13 07:09:28;;;;;;;116.43;63.07;;;18.60;99.90;;;;;;5033594;28;20516;-81
2021/07/13 07:11:54;;;;;;;113.73;61.20;;;18.60;99.90;;;;;;5033700;28;20197;-78
2021/07/13 07:14:19;;;;;;;112.07;61.33;;;18.70;99.90;;;;;;5033810;28;20523;-76
2021/07/13 07:16:46;;;;;;;115.57;64.97;;;18.60;99.90;;;;;;5033785;28;20201;-79
2021/07/13 07:19:12;;;;;;;111.80;62.57;;;18.70;99.90;;;;;;5043577;28;20206;-77
2021/07/13 07:21:37;;;;;;;108.77;62.77;;;18.80;99.90;;;;;;5044183;28;20209;-76
2021/07/13 07:24:04;;;;;;;112.30;61.70;;;18.90;99.90;;;;;;5042068;28;20170;-80
2021/07/13 07:26:29;;;;;;;110.23;60.83;;;18.80;99.90;;;;;;5034139;28;20256;-79
2021/07/13 07:28:55;;;;;;;110.60;58.73;;;18.90;99.90;;;;;;5033926;28;20248;-76
2021/07/13 07:31:22;;;;;;;109.33;60.13;;;18.90;99.90;;;;;;5033903;28;20243;-76
2021/07/13 07:33:49;;;;;;;109.23;62.33;;;18.90;99.90;;;;;;5033301;28;20189;-76
2021/07/13 07:36:15;;;;;;;109.77;61.33;;;18.90;99.90;;;;;;5033462;28;20174;-75
2021/07/13 07:38:40;;;;;;;112.67;61.80;;;18.80;99.90;;;;;;5033279;28;20292;-76
2021/07/13 07:41:07;;;;;;;100.33;61.87;;;18.80;99.90;;;;;;5033154;28;20729;-80
2021/07/13 07:43:33;;;;;;;100.47;60.43;;;18.90;99.90;;;;;;5033369;28;20190;-77
2021/07/13 07:45:58;;;;;;;106.03;61.07;;;18.90;99.90;;;;;;5033807;28;20178;-76
2021/07/13 07:48:24;;;;;;;101.40;62.00;;;19.00;99.90;;;;;;5036447;28;20650;-81
2021/07/13 07:50:50;;;;;;;94.20;57.60;;;19.20;99.90;;;;;;5037610;28;20185;-75
2021/07/13 07:53:16;;;;;;;74.13;49.57;;;19.20;99.90;;;;;;5037177;28;20192;-80
2021/07/13 07:55:43;;;;;;;70.07;49.47;;;19.30;99.90;;;;;;5037161;28;20182;-75
2021/07/13 07:58:09;;;;;;;81.57;52.23;;;19.30;99.90;;;;;;5037096;28;20182;-80
2021/07/13 08:00:35;;;;;;;77.77;51.47;;;19.40;99.90;;;;;;5043371;28;20236;-77
2021/07/13 08:03:01;;;;;;;74.03;51.17;;;19.50;99.90;;;;;;5040362;28;20188;-77
2021/07/13 08:05:30;;;;;;;72.87;49.57;;;19.50;99.90;;;;;;5036418;28;20692;-78
2021/07/13 08:07:55;;;;;;;70.50;50.80;;;19.50;99.90;;;;;;5036483;28;20166;-80
2021/07/13 08:10:21;;;;;;;71.33;52.03;;;19.60;99.90;;;;;;5036570;28;20176;-81
2021/07/13 08:12:47;;;;;;;70.00;49.07;;;19.70;99.90;;;;;;5036248;28;20673;-74
2021/07/13 08:15:14;;;;;;;68.13;48.43;;;19.90;99.90;;;;;;5036379;28;20300;-76
2021/07/13 08:17:41;;;;;;;69.20;48.87;;;20.00;99.90;;;;;;5036119;28;20197;-76
2021/07/13 08:20:09;;;;;;;69.60;48.63;;;20.00;99.90;;;;;;5053406;28;20197;-76
2021/07/13 08:22:35;;;;;;;70.77;49.93;;;19.90;99.90;;;;;;5055901;28;20197;-74
2021/07/13 08:25:02;;;;;;;68.33;48.80;;;19.90;99.90;;;;;;5056148;28;20154;-76
2021/07/13 08:27:28;;;;;;;69.43;49.20;;;20.00;99.90;;;;;;5056574;28;20162;-78
2021/07/13 08:29:54;;;;;;;69.47;48.53;;;20.10;99.90;;;;;;5056162;28;20192;-79
2021/07/13 08:32:19;;;;;;;64.43;48.43;;;20.00;99.90;;;;;;5055808;28;20186;-78
2021/07/13 08:34:45;;;;;;;66.33;48.10;;;20.00;99.90;;;;;;5056365;28;20170;-75
2021/07/13 08:37:11;;;;;;;65.30;48.30;;;20.20;99.90;;;;;;5056442;28;20194;-78
2021/07/13 08:39:36;;;;;;;71.90;47.57;;;20.10;99.90;;;;;;5056247;28;20264;-78
2021/07/13 08:42:03;;;;;;;63.93;48.10;;;20.20;99.90;;;;;;5056372;28;20201;-77
2021/07/13 08:44:30;;;;;;;67.47;48.30;;;20.20;99.90;;;;;;5055495;28;20208;-74
2021/07/13 08:46:55;;;;;;;70.07;48.57;;;20.10;99.90;;;;;;5057491;28;20182;-77
2021/07/13 08:49:21;;;;;;;72.10;50.07;;;20.10;99.90;;;;;;5058052;28;20706;-78
2021/07/13 08:51:48;;;;;;;69.13;50.80;;;20.30;99.90;;;;;;5058051;28;20195;-75
2021/07/13 08:54:13;;;;;;;69.97;50.03;;;20.20;99.90;;;;;;5057852;28;20175;-78
2021/07/13 08:56:39;;;;;;;77.93;53.73;;;20.60;99.90;;;;;;5059465;28;20183;-79
2021/07/13 08:59:05;;;;;;;73.90;52.63;;;20.80;99.90;;;;;;5055318;28;20185;-79
2021/07/13 09:01:31;;;;;;;70.90;52.67;;;20.90;99.20;;;;;;5057815;28;20663;-80
2021/07/13 09:03:58;;;;;;;74.30;52.83;;;20.90;99.30;;;;;;5064232;28;20194;-77
2021/07/13 09:06:24;;;;;;;72.57;52.70;;;20.90;99.70;;;;;;5065443;28;20166;-79
2021/07/13 09:08:50;;;;;;;73.20;52.20;;;21.00;99.50;;;;;;5067418;28;20163;-75
2021/07/13 09:11:18;;;;;;;76.63;53.77;;;20.70;99.90;;;;;;5068965;28;20196;-77
2021/07/13 09:13:54;;;;;;;73.10;51.37;;;20.70;99.90;;;;;;5055344;28;20156;-79
2021/07/13 09:16:29;;;;;;;75.50;52.90;;;20.80;99.90;;;;;;5055007;28;20186;-80
2021/07/13 09:18:57;;;;;;;72.10;51.33;;;20.80;99.90;;;;;;5054995;28;20171;-74
2021/07/13 09:21:33;;;;;;;68.47;50.50;;;20.80;99.80;;;;;;5054848;28;20290;-78
2021/07/13 09:24:02;;;;;;;73.87;52.30;;;20.70;99.90;;;;;;5054523;28;20181;-81
2021/07/13 09:26:55;;;;;;;70.13;51.97;;;20.70;99.90;;;;;;5055933;28;20646;-79
2021/07/13 09:29:44;;;;;;;74.90;53.77;;;20.80;99.90;;;;;;5056293;28;20170;-77
2021/07/13 09:32:22;;;;;;;73.57;52.13;;;20.80;99.90;;;;;;5055472;28;20170;-78
2021/07/13 09:34:50;;;;;;;78.30;54.10;;;20.90;99.90;;;;;;5055383;28;20179;-78
2021/07/13 09:37:33;;;;;;;81.63;56.87;;;21.00;99.90;;;;;;5054294;28;20182;-76
2021/07/13 09:40:07;;;;;;;81.63;57.83;;;20.80;99.90;;;;;;5059774;28;20206;-78
2021/07/13 09:42:56;;;;;;;86.00;59.90;;;20.80;99.90;;;;;;5058383;28;20404;-75
2021/07/13 09:45:34;;;;;;;87.77;60.87;;;20.80;99.90;;;;;;5060144;28;20158;-78
2021/07/13 09:48:09;;;;;;;84.27;61.20;;;21.10;99.90;;;;;;5058565;28;20178;-75
2021/07/13 09:50:44;;;;;;;84.50;62.77;;;21.10;99.90;;;;;;5060848;28;20162;-79
2021/07/13 09:53:15;;;;;;;96.93;65.83;;;21.00;99.90;;;;;;5057930;28;20201;-75
2021/07/13 09:55:42;;;;;;;93.07;63.47;;;21.00;99.90;;;;;;5054628;28;20615;-79
2021/07/13 09:58:12;;;;;;;88.43;62.40;;;21.10;99.90;;;;;;5054767;28;20204;-79
2021/07/13 10:00:45;;;;;;;91.57;64.13;;;21.20;99.90;;;;;;5055648;28;20207;-76
2021/07/13 10:03:13;;;;;;;87.93;64.00;;;21.10;99.90;;;;;;5056490;28;20197;-79
2021/07/13 10:05:40;;;;;;;84.70;62.37;;;21.10;99.90;;;;;;5059106;28;20260;-75
2021/07/13 10:08:06;;;;;;;90.80;64.03;;;20.90;99.90;;;;;;5073368;28;20266;-77
2021/07/13 10:10:33;;;;;;;88.27;64.90;;;21.00;99.90;;;;;;5070697;28;20211;-76
2021/07/13 10:12:59;;;;;;;90.47;63.93;;;20.90;99.90;;;;;;5056836;28;20177;-76
2021/07/13 10:15:26;;;;;;;72.47;54.60;;;20.90;99.90;;;;;;5055772;28;20311;-78
2021/07/13 10:17:56;;;;;;;59.50;46.20;;;20.90;99.90;;;;;;5054887;28;20167;-74
2021/07/13 10:20:23;;;;;;;55.87;42.47;;;20.90;98.80;;;;;;5054715;28;20205;-76
2021/07/13 10:22:51;;;;;;;48.27;39.63;;;20.90;97.50;;;;;;5054288;28;20189;-79
2021/07/13 10:25:17;;;;;;;50.40;40.03;;;20.90;96.80;;;;;;5054589;28;20578;-78
2021/07/13 10:27:52;;;;;;;50.77;40.53;;;21.10;97.00;;;;;;5053943;28;20651;-77
2021/07/13 10:30:21;;;;;;;51.80;40.23;;;21.20;96.40;;;;;;5053682;28;20182;-75
2021/07/13 10:32:46;;;;;;;47.17;39.77;;;21.10;96.30;;;;;;5052305;28;20175;-77
2021/07/13 10:35:13;;;;;;;49.00;39.70;;;21.10;96.40;;;;;;5053830;28;20197;-78
2021/07/13 10:37:45;;;;;;;49.97;41.17;;;21.10;96.70;;;;;;5052462;28;20187;-77
2021/07/13 10:40:33;;;;;;;52.57;41.07;;;21.10;96.60;;;;;;5052410;28;20583;-77
2021/07/13 10:42:58;;;;;;;47.93;38.00;;;21.10;96.80;;;;;;5053093;28;20611;-77
2021/07/13 10:45:30;;;;;;;45.23;38.00;;;21.20;96.60;;;;;;5053173;28;20263;-79
2021/07/13 10:47:56;;;;;;;43.67;36.57;;;21.30;95.90;;;;;;5053679;28;20170;-78
2021/07/13 10:50:22;;;;;;;41.33;36.70;;;21.20;95.90;;;;;;5054219;28;20162;-77
2021/07/13 10:52:54;;;;;;;42.67;37.27;;;21.20;96.30;;;;;;5053358;28;20180;-81
2021/07/13 10:55:35;;;;;;;42.70;36.67;;;21.30;96.50;;;;;;5053638;28;20178;-76
2021/07/13 10:58:18;;;;;;;43.00;37.17;;;21.30;96.20;;;;;;5054671;28;20238;-78
2021/07/13 11:00:59;;;;;;;44.67;37.67;;;21.30;94.60;;;;;;5057283;28;20213;-76
2021/07/13 11:03:27;;;;;;;42.97;38.37;;;21.30;95.10;;;;;;5061328;28;20222;-75
2021/07/13 11:06:09;;;;;;;42.73;38.13;;;21.40;95.40;;;;;;5060826;28;20225;-76
2021/07/13 11:08:41;;;;;;;41.33;36.93;;;21.40;95.60;;;;;;5052105;28;20176;-78
2021/07/13 11:11:16;;;;;;;42.90;38.30;;;21.30;95.80;;;;;;5053289;28;20252;-77
2021/07/13 11:13:43;;;;;;;42.57;37.03;;;21.40;96.20;;;;;;5052603;28;20181;-77
2021/07/13 11:16:09;;;;;;;41.67;37.03;;;21.40;95.90;;;;;;5053565;28;20168;-76
2021/07/13 11:18:37;;;;;;;44.13;37.33;;;21.40;95.70;;;;;;5053366;28;20175;-78
2021/07/13 11:21:31;;;;;;;44.67;39.00;;;21.40;95.50;;;;;;5052846;28;20200;-79
2021/07/13 11:24:10;;;;;;;42.87;38.20;;;21.50;95.60;;;;;;5053395;28;20202;-76
2021/07/13 11:26:40;;;;;;;43.67;39.07;;;21.40;95.70;;;;;;5053498;28;20163;-76
2021/07/13 11:29:27;;;;;;;42.13;37.73;;;21.40;95.80;;;;;;5053734;28;20167;-76
2021/07/13 11:31:58;;;;;;;43.40;38.83;;;21.30;96.20;;;;;;5055747;28;20181;-77
2021/07/13 11:34:26;;;;;;;42.77;38.27;;;21.40;96.50;;;;;;5059380;28;20659;-77
2021/07/13 11:36:54;;;;;;;43.27;38.77;;;21.50;96.00;;;;;;5056673;28;20276;-77
2021/07/13 11:39:29;;;;;;;43.80;39.20;;;21.50;96.20;;;;;;5053399;28;20224;-75
2021/07/13 11:41:57;;;;;;;44.73;39.70;;;21.50;96.30;;;;;;5052761;28;20194;-75
2021/07/13 11:44:24;;;;;;;42.63;38.07;;;21.40;96.90;;;;;;5053413;28;20174;-76
2021/07/13 11:46:52;;;;;;;43.37;38.87;;;21.50;96.70;;;;;;5053158;28;20205;-76
2021/07/13 11:49:20;;;;;;;43.00;38.60;;;21.60;96.10;;;;;;5053363;28;20662;-79
2021/07/13 11:51:58;;;;;;;44.03;39.33;;;21.60;96.10;;;;;;5053535;28;20172;-76
2021/07/13 11:54:27;;;;;;;45.73;41.03;;;21.60;96.60;;;;;;5053368;28;20249;-75
2021/07/13 11:56:58;;;;;;;46.57;41.87;;;21.60;97.40;;;;;;5052950;28;20171;-79
2021/07/13 11:59:27;;;;;;;45.57;40.80;;;21.60;98.00;;;;;;5052962;28;20618;-80
2021/07/13 12:02:14;;;;;;;48.27;42.97;;;21.50;98.60;;;;;;5053061;28;20229;-81
2021/07/13 12:04:48;;;;;;;52.80;47.07;;;21.30;99.90;;;;;;5053360;28;20280;-80
2021/07/13 12:07:14;;;;;;;56.03;48.53;;;20.80;99.90;;;;;;5052958;28;20179;-80
2021/07/13 12:09:40;;;;;;;62.07;50.63;;;20.50;99.90;;;;;;5052834;28;20167;-76
2021/07/13 12:12:15;;;;;;;60.60;50.00;;;20.40;99.90;;;;;;5053700;28;20170;-81
2021/07/13 12:14:54;;;;;;;68.27;54.37;;;20.40;99.90;;;;;;5056474;28;20701;-77
2021/07/13 12:17:25;;;;;;;73.03;56.40;;;20.40;99.90;;;;;;5052927;28;20176;-77
2021/07/13 12:19:54;;;;;;;73.87;56.87;;;20.30;99.90;;;;;;5052930;28;20176;-76
2021/07/13 12:22:21;;;;;;;71.80;54.43;;;20.30;99.90;;;;;;5052559;28;20205;-78
2021/07/13 12:24:48;;;;;;;70.97;54.27;;;20.30;99.90;;;;;;5052323;28;20170;-79
2021/07/13 12:27:18;;;;;;;74.63;58.40;;;20.20;99.90;;;;;;5054081;28;20177;-81
2021/07/13 12:29:46;;;;;;;77.57;58.87;;;20.20;99.90;;;;;;5052691;28;20171;-77
2021/07/13 12:32:16;;;;;;;82.70;61.00;;;20.20;99.90;;;;;;5053209;28;20171;-76
2021/07/13 12:34:44;;;;;;;81.90;61.87;;;20.30;99.90;;;;;;5057278;28;20574;-80